sensor_id;sensor_type;location;lat;lon;timestamp;pressure;altitude;pressure_sealevel;temperature;humidity
53719;BME280;39616;48.872;9.390;2023-04-06T00:00:39;98618.19;;;-1.02;78.74
53719;BME280;39616;48.872;9.390;2023-04-06T00:03:09;98619.44;;;-1.04;79.20
53719;BME280;39616;48.872;9.390;2023-04-06T00:05:40;98613.53;;;-1.06;78.81
53719;BME280;39616;48.872;9.390;2023-04-06T00:08:11;98612.91;;;-1.08;79.89
53719;BME280;39616;48.872;9.390;2023-04-06T00:10:41;98608.38;;;-1.08;80.34
53719;BME280;39616;48.872;9.390;2023-04-06T00:13:12;98603.28;;;-1.09;80.65
53719;BME280;39616;48.872;9.390;2023-04-06T00:15:42;98606.13;;;-1.04;80.03
53719;BME280;39616;48.872;9.390;2023-04-06T00:18:12;98602.00;;;-1.00;79.53
53719;BME280;39616;48.872;9.390;2023-04-06T00:20:43;98603.25;;;-1.03;79.26
53719;BME280;39616;48.872;9.390;2023-04-06T00:23:13;98600.78;;;-1.04;79.38
53719;BME280;39616;48.872;9.390;2023-04-06T00:25:43;98597.78;;;-1.14;79.49
53719;BME280;39616;48.872;9.390;2023-04-06T00:28:14;98600.25;;;-1.13;79.64
53719;BME280;39616;48.872;9.390;2023-04-06T00:30:44;98595.78;;;-1.19;79.99
53719;BME280;39616;48.872;9.390;2023-04-06T00:33:15;98594.34;;;-1.22;80.66
53719;BME280;39616;48.872;9.390;2023-04-06T00:35:45;98596.19;;;-1.22;80.18
53719;BME280;39616;48.872;9.390;2023-04-06T00:38:16;98593.59;;;-1.29;80.98
53719;BME280;39616;48.872;9.390;2023-04-06T00:40:46;98597.69;;;-1.33;81.39
53719;BME280;39616;48.872;9.390;2023-04-06T00:43:17;98594.44;;;-1.35;81.41
53719;BME280;39616;48.872;9.390;2023-04-06T00:45:47;98587.50;;;-1.36;81.25
53719;BME280;39616;48.872;9.390;2023-04-06T00:48:17;98593.19;;;-1.32;81.58
53719;BME280;39616;48.872;9.390;2023-04-06T00:50:48;98590.94;;;-1.29;81.25
53719;BME280;39616;48.872;9.390;2023-04-06T00:53:18;98588.44;;;-1.24;82.03
53719;BME280;39616;48.872;9.390;2023-04-06T00:55:48;98590.66;;;-1.20;81.56
53719;BME280;39616;48.872;9.390;2023-04-06T00:58:19;98594.97;;;-1.19;81.57
53719;BME280;39616;48.872;9.390;2023-04-06T01:00:49;98588.00;;;-1.20;81.67
53719;BME280;39616;48.872;9.390;2023-04-06T01:03:20;98592.94;;;-1.24;81.56
53719;BME280;39616;48.872;9.390;2023-04-06T01:05:51;98588.47;;;-1.30;81.51
53719;BME280;39616;48.872;9.390;2023-04-06T01:08:25;98590.53;;;-1.32;81.59
53719;BME280;39616;48.872;9.390;2023-04-06T01:10:59;98582.56;;;-1.32;81.26
53719;BME280;39616;48.872;9.390;2023-04-06T01:13:30;98581.72;;;-1.33;81.75
53719;BME280;39616;48.872;9.390;2023-04-06T01:16:02;98580.75;;;-1.38;81.67
53719;BME280;39616;48.872;9.390;2023-04-06T01:18:32;98582.38;;;-1.37;82.51
53719;BME280;39616;48.872;9.390;2023-04-06T01:21:02;98579.72;;;-1.44;81.44
53719;BME280;39616;48.872;9.390;2023-04-06T01:23:33;98577.56;;;-1.54;82.21
53719;BME280;39616;48.872;9.390;2023-04-06T01:26:03;98574.06;;;-1.54;82.77
53719;BME280;39616;48.872;9.390;2023-04-06T01:28:33;98570.16;;;-1.52;82.95
53719;BME280;39616;48.872;9.390;2023-04-06T01:31:08;98564.41;;;-1.49;82.91
53719;BME280;39616;48.872;9.390;2023-04-06T01:33:39;98563.84;;;-1.57;82.72
53719;BME280;39616;48.872;9.390;2023-04-06T01:36:10;98571.47;;;-1.67;82.94
53719;BME280;39616;48.872;9.390;2023-04-06T01:38:40;98571.69;;;-1.69;83.07
53719;BME280;39616;48.872;9.390;2023-04-06T01:41:11;98565.75;;;-1.71;83.01
53719;BME280;39616;48.872;9.390;2023-04-06T01:43:42;98556.59;;;-1.82;83.33
53719;BME280;39616;48.872;9.390;2023-04-06T01:46:12;98558.66;;;-1.84;84.93
53719;BME280;39616;48.872;9.390;2023-04-06T01:48:42;98568.25;;;-1.83;84.13
53719;BME280;39616;48.872;9.390;2023-04-06T01:51:13;98555.00;;;-1.89;84.33
53719;BME280;39616;48.872;9.390;2023-04-06T01:53:43;98554.81;;;-1.95;84.99
53719;BME280;39616;48.872;9.390;2023-04-06T01:56:14;98554.59;;;-2.00;85.38
53719;BME280;39616;48.872;9.390;2023-04-06T01:58:44;98553.81;;;-2.00;85.95
53719;BME280;39616;48.872;9.390;2023-04-06T02:01:14;98552.16;;;-1.95;86.16
53719;BME280;39616;48.872;9.390;2023-04-06T02:03:45;98556.66;;;-1.95;85.81
53719;BME280;39616;48.872;9.390;2023-04-06T02:06:15;98556.84;;;-1.97;85.69
53719;BME280;39616;48.872;9.390;2023-04-06T02:08:45;98555.81;;;-1.96;85.44
53719;BME280;39616;48.872;9.390;2023-04-06T02:11:16;98556.69;;;-2.02;85.91
53719;BME280;39616;48.872;9.390;2023-04-06T02:13:46;98555.88;;;-2.02;86.98
53719;BME280;39616;48.872;9.390;2023-04-06T02:16:17;98547.69;;;-2.07;86.73
53719;BME280;39616;48.872;9.390;2023-04-06T02:18:47;98556.69;;;-2.08;86.34
53719;BME280;39616;48.872;9.390;2023-04-06T02:21:17;98550.81;;;-2.17;86.46
53719;BME280;39616;48.872;9.390;2023-04-06T02:23:50;98556.31;;;-2.25;87.40
53719;BME280;39616;48.872;9.390;2023-04-06T02:26:20;98555.91;;;-2.29;88.95
53719;BME280;39616;48.872;9.390;2023-04-06T02:28:51;98548.38;;;-2.32;88.74
53719;BME280;39616;48.872;9.390;2023-04-06T02:31:21;98550.59;;;-2.29;90.29
53719;BME280;39616;48.872;9.390;2023-04-06T02:33:52;98543.66;;;-2.23;90.55
53719;BME280;39616;48.872;9.390;2023-04-06T02:36:22;98548.34;;;-2.19;89.09
53719;BME280;39616;48.872;9.390;2023-04-06T02:38:52;98549.78;;;-2.23;88.72
53719;BME280;39616;48.872;9.390;2023-04-06T02:41:22;98544.06;;;-2.26;88.42
53719;BME280;39616;48.872;9.390;2023-04-06T02:43:53;98545.91;;;-2.27;87.70
53719;BME280;39616;48.872;9.390;2023-04-06T02:46:23;98545.09;;;-2.27;87.85
53719;BME280;39616;48.872;9.390;2023-04-06T02:48:53;98544.50;;;-2.36;88.71
53719;BME280;39616;48.872;9.390;2023-04-06T02:51:24;98545.72;;;-2.32;90.55
53719;BME280;39616;48.872;9.390;2023-04-06T02:53:55;98544.06;;;-2.26;89.82
53719;BME280;39616;48.872;9.390;2023-04-06T02:56:26;98544.88;;;-2.19;89.62
53719;BME280;39616;48.872;9.390;2023-04-06T02:58:56;98536.72;;;-2.24;88.73
53719;BME280;39616;48.872;9.390;2023-04-06T03:01:26;98533.84;;;-2.29;88.86
53719;BME280;39616;48.872;9.390;2023-04-06T03:03:57;98533.25;;;-2.31;88.83
53719;BME280;39616;48.872;9.390;2023-04-06T03:06:27;98540.81;;;-2.28;88.25
53719;BME280;39616;48.872;9.390;2023-04-06T03:08:57;98529.56;;;-2.30;88.63
53719;BME280;39616;48.872;9.390;2023-04-06T03:11:28;98527.72;;;-2.30;88.86
53719;BME280;39616;48.872;9.390;2023-04-06T03:13:58;98530.38;;;-2.30;88.43
53719;BME280;39616;48.872;9.390;2023-04-06T03:16:29;98532.84;;;-2.28;87.67
53719;BME280;39616;48.872;9.390;2023-04-06T03:18:59;98524.44;;;-2.25;87.54
53719;BME280;39616;48.872;9.390;2023-04-06T03:21:30;98516.47;;;-2.25;87.17
53719;BME280;39616;48.872;9.390;2023-04-06T03:24:00;98524.50;;;-2.38;89.09
53719;BME280;39616;48.872;9.390;2023-04-06T03:26:30;98529.59;;;-2.44;90.16
53719;BME280;39616;48.872;9.390;2023-04-06T03:29:01;98531.66;;;-2.46;89.52
53719;BME280;39616;48.872;9.390;2023-04-06T03:31:31;98534.94;;;-2.50;90.08
53719;BME280;39616;48.872;9.390;2023-04-06T03:34:01;98538.81;;;-2.46;90.15
53719;BME280;39616;48.872;9.390;2023-04-06T03:36:33;98539.00;;;-2.48;89.66
53719;BME280;39616;48.872;9.390;2023-04-06T03:39:04;98542.06;;;-2.44;89.11
53719;BME280;39616;48.872;9.390;2023-04-06T03:41:34;98544.94;;;-2.46;88.87
53719;BME280;39616;48.872;9.390;2023-04-06T03:44:05;98543.69;;;-2.43;89.21
53719;BME280;39616;48.872;9.390;2023-04-06T03:46:36;98546.78;;;-2.46;88.28
53719;BME280;39616;48.872;9.390;2023-04-06T03:49:06;98538.19;;;-2.48;88.16
53719;BME280;39616;48.872;9.390;2023-04-06T03:51:36;98540.66;;;-2.53;88.57
53719;BME280;39616;48.872;9.390;2023-04-06T03:54:07;98540.88;;;-2.61;88.76
53719;BME280;39616;48.872;9.390;2023-04-06T03:56:37;98550.06;;;-2.57;88.75
53719;BME280;39616;48.872;9.390;2023-04-06T03:59:07;98558.66;;;-2.69;90.15
53719;BME280;39616;48.872;9.390;2023-04-06T04:01:37;98549.03;;;-2.63;91.40
53719;BME280;39616;48.872;9.390;2023-04-06T04:04:10;98561.28;;;-2.62;90.81
53719;BME280;39616;48.872;9.390;2023-04-06T04:06:40;98551.69;;;-2.56;89.93
53719;BME280;39616;48.872;9.390;2023-04-06T04:09:10;98558.22;;;-2.52;88.95
53719;BME280;39616;48.872;9.390;2023-04-06T04:11:41;98561.28;;;-2.55;87.56
53719;BME280;39616;48.872;9.390;2023-04-06T04:14:11;98558.22;;;-2.59;87.38
53719;BME280;39616;48.872;9.390;2023-04-06T04:16:41;98564.16;;;-2.63;88.10
53719;BME280;39616;48.872;9.390;2023-04-06T04:19:12;98560.69;;;-2.71;88.62
53719;BME280;39616;48.872;9.390;2023-04-06T04:21:43;98573.16;;;-2.64;88.78
53719;BME280;39616;48.872;9.390;2023-04-06T04:24:15;98560.28;;;-2.68;88.64
53719;BME280;39616;48.872;9.390;2023-04-06T04:26:45;98559.69;;;-2.83;89.52
53719;BME280;39616;48.872;9.390;2023-04-06T04:29:15;98571.09;;;-2.82;90.18
53719;BME280;39616;48.872;9.390;2023-04-06T04:31:46;98562.94;;;-2.81;90.47
53719;BME280;39616;48.872;9.390;2023-04-06T04:34:17;98565.41;;;-2.79;90.73
53719;BME280;39616;48.872;9.390;2023-04-06T04:36:50;98569.06;;;-2.87;90.47
53719;BME280;39616;48.872;9.390;2023-04-06T04:39:20;98562.13;;;-2.81;90.52
53719;BME280;39616;48.872;9.390;2023-04-06T04:41:51;98565.16;;;-2.84;89.52
53719;BME280;39616;48.872;9.390;2023-04-06T04:44:21;98568.88;;;-2.79;90.73
53719;BME280;39616;48.872;9.390;2023-04-06T04:46:52;98573.13;;;-2.78;90.17
53719;BME280;39616;48.872;9.390;2023-04-06T04:49:22;98569.66;;;-2.78;89.77
53719;BME280;39616;48.872;9.390;2023-04-06T04:51:52;98570.50;;;-2.78;89.34
53719;BME280;39616;48.872;9.390;2023-04-06T04:54:23;98566.22;;;-2.79;89.16
53719;BME280;39616;48.872;9.390;2023-04-06T04:56:53;98568.25;;;-2.74;88.58
53719;BME280;39616;48.872;9.390;2023-04-06T04:59:24;98573.34;;;-2.73;88.57
53719;BME280;39616;48.872;9.390;2023-04-06T05:01:54;98575.41;;;-2.75;87.83
53719;BME280;39616;48.872;9.390;2023-04-06T05:04:25;98579.66;;;-2.74;88.52
53719;BME280;39616;48.872;9.390;2023-04-06T05:07:05;98579.69;;;-2.67;88.58
53719;BME280;39616;48.872;9.390;2023-04-06T05:09:35;98579.06;;;-2.62;88.30
53719;BME280;39616;48.872;9.390;2023-04-06T05:12:06;98583.56;;;-2.56;87.61
53719;BME280;39616;48.872;9.390;2023-04-06T05:14:36;98588.47;;;-2.47;87.87
53719;BME280;39616;48.872;9.390;2023-04-06T05:17:07;98576.81;;;-2.39;87.82
53719;BME280;39616;48.872;9.390;2023-04-06T05:19:38;98579.00;;;-2.29;87.38
53719;BME280;39616;48.872;9.390;2023-04-06T05:22:08;98582.06;;;-2.26;87.25
53719;BME280;39616;48.872;9.390;2023-04-06T05:28:05;98597.59;;;-2.16;85.54
53719;BME280;39616;48.872;9.390;2023-04-06T05:30:36;98588.19;;;-2.12;85.54
53719;BME280;39616;48.872;9.390;2023-04-06T05:33:06;98594.72;;;-2.08;86.01
53719;BME280;39616;48.872;9.390;2023-04-06T05:35:37;98600.81;;;-2.01;85.67
53719;BME280;39616;48.872;9.390;2023-04-06T05:38:08;98594.63;;;-1.88;85.55
53719;BME280;39616;48.872;9.390;2023-04-06T05:40:38;98603.22;;;-1.79;84.57
53719;BME280;39616;48.872;9.390;2023-04-06T05:43:11;98593.38;;;-1.65;84.73
53719;BME280;39616;48.872;9.390;2023-04-06T05:45:44;98608.00;;;-1.50;85.02
53719;BME280;39616;48.872;9.390;2023-04-06T05:48:14;98604.94;;;-1.47;83.70
53719;BME280;39616;48.872;9.390;2023-04-06T05:50:48;98601.38;;;-1.34;83.65
53719;BME280;39616;48.872;9.390;2023-04-06T05:53:20;98596.84;;;-1.27;83.41
53719;BME280;39616;48.872;9.390;2023-04-06T05:55:56;98602.09;;;-1.13;83.40
53719;BME280;39616;48.872;9.390;2023-04-06T05:58:26;98598.75;;;-1.02;82.16
53719;BME280;39616;48.872;9.390;2023-04-06T06:01:00;98598.22;;;-0.86;81.10
53719;BME280;39616;48.872;9.390;2023-04-06T06:03:31;98593.63;;;-0.72;80.87
53719;BME280;39616;48.872;9.390;2023-04-06T06:06:02;98593.91;;;-0.55;80.54
53719;BME280;39616;48.872;9.390;2023-04-06T06:08:33;98593.34;;;-0.39;79.89
53719;BME280;39616;48.872;9.390;2023-04-06T06:11:03;98603.41;;;-0.22;79.39
53719;BME280;39616;48.872;9.390;2023-04-06T06:13:34;98609.63;;;-0.04;78.52
53719;BME280;39616;48.872;9.390;2023-04-06T06:16:04;98604.88;;;0.17;78.38
53719;BME280;39616;48.872;9.390;2023-04-06T06:18:35;98613.47;;;0.37;77.03
53719;BME280;39616;48.872;9.390;2023-04-06T06:21:06;98611.16;;;0.59;75.52
53719;BME280;39616;48.872;9.390;2023-04-06T06:23:37;98598.59;;;0.78;74.23
53719;BME280;39616;48.872;9.390;2023-04-06T06:26:07;98599.47;;;1.02;73.47
53719;BME280;39616;48.872;9.390;2023-04-06T06:28:38;98601.97;;;1.27;72.61
53719;BME280;39616;48.872;9.390;2023-04-06T06:31:08;98595.50;;;1.47;71.89
53719;BME280;39616;48.872;9.390;2023-04-06T06:33:38;98592.97;;;1.63;70.52
53719;BME280;39616;48.872;9.390;2023-04-06T06:36:09;98590.72;;;1.84;69.25
53719;BME280;39616;48.872;9.390;2023-04-06T06:38:39;98598.50;;;2.09;68.61
53719;BME280;39616;48.872;9.390;2023-04-06T06:41:10;98594.50;;;2.35;67.74
53719;BME280;39616;48.872;9.390;2023-04-06T06:43:40;98589.00;;;2.53;66.90
53719;BME280;39616;48.872;9.390;2023-04-06T06:46:11;98593.13;;;2.73;66.66
53719;BME280;39616;48.872;9.390;2023-04-06T06:48:41;98598.72;;;3.00;65.59
53719;BME280;39616;48.872;9.390;2023-04-06T06:51:11;98594.03;;;3.07;65.67
53719;BME280;39616;48.872;9.390;2023-04-06T06:53:42;98597.47;;;3.36;64.48
53719;BME280;39616;48.872;9.390;2023-04-06T06:56:12;98588.44;;;3.59;64.17
53719;BME280;39616;48.872;9.390;2023-04-06T06:58:42;98592.34;;;3.68;63.57
53719;BME280;39616;48.872;9.390;2023-04-06T07:01:13;98591.25;;;3.86;62.96
53719;BME280;39616;48.872;9.390;2023-04-06T07:03:43;98592.53;;;4.17;63.10
53719;BME280;39616;48.872;9.390;2023-04-06T07:06:13;98595.53;;;4.43;62.64
53719;BME280;39616;48.872;9.390;2023-04-06T07:08:44;98600.03;;;4.59;61.57
53719;BME280;39616;48.872;9.390;2023-04-06T07:11:14;98595.56;;;4.70;60.29
53719;BME280;39616;48.872;9.390;2023-04-06T07:13:45;98599.69;;;4.77;59.65
53719;BME280;39616;48.872;9.390;2023-04-06T07:16:15;98604.41;;;4.92;58.76
53719;BME280;39616;48.872;9.390;2023-04-06T07:18:46;98602.78;;;5.18;58.75
53719;BME280;39616;48.872;9.390;2023-04-06T07:21:16;98603.47;;;5.30;58.00
53719;BME280;39616;48.872;9.390;2023-04-06T07:23:47;98605.31;;;5.57;57.46
53719;BME280;39616;48.872;9.390;2023-04-06T07:26:18;98595.50;;;5.78;56.89
53719;BME280;39616;48.872;9.390;2023-04-06T07:28:48;98596.75;;;5.97;56.31
53719;BME280;39616;48.872;9.390;2023-04-06T07:31:20;98599.53;;;6.18;54.97
53719;BME280;39616;48.872;9.390;2023-04-06T07:33:50;98597.50;;;6.40;55.77
53719;BME280;39616;48.872;9.390;2023-04-06T07:36:20;98594.03;;;6.45;54.66
53719;BME280;39616;48.872;9.390;2023-04-06T07:38:51;98592.53;;;6.80;54.09
53719;BME280;39616;48.872;9.390;2023-04-06T07:41:21;98595.31;;;7.00;54.14
53719;BME280;39616;48.872;9.390;2023-04-06T07:43:52;98597.50;;;7.54;52.98
53719;BME280;39616;48.872;9.390;2023-04-06T07:46:22;98594.81;;;7.54;52.24
53719;BME280;39616;48.872;9.390;2023-04-06T07:48:52;98599.41;;;7.54;51.85
53719;BME280;39616;48.872;9.390;2023-04-06T07:51:23;98582.94;;;7.86;50.99
53719;BME280;39616;48.872;9.390;2023-04-06T07:53:53;98593.16;;;7.94;50.50
53719;BME280;39616;48.872;9.390;2023-04-06T07:56:23;98585.03;;;8.09;50.21
53719;BME280;39616;48.872;9.390;2023-04-06T07:58:54;98586.00;;;8.59;49.58
53719;BME280;39616;48.872;9.390;2023-04-06T08:01:28;98590.41;;;9.00;47.74
53719;BME280;39616;48.872;9.390;2023-04-06T08:03:58;98584.53;;;8.87;47.74
53719;BME280;39616;48.872;9.390;2023-04-06T08:06:30;98577.66;;;9.44;48.16
53719;BME280;39616;48.872;9.390;2023-04-06T08:09:00;98574.91;;;9.79;46.26
53719;BME280;39616;48.872;9.390;2023-04-06T08:11:31;98574.56;;;10.14;45.67
53719;BME280;39616;48.872;9.390;2023-04-06T08:14:01;98575.47;;;10.34;44.28
53719;BME280;39616;48.872;9.390;2023-04-06T08:16:31;98577.25;;;10.44;43.58
53719;BME280;39616;48.872;9.390;2023-04-06T08:19:02;98577.19;;;10.49;41.56
53719;BME280;39616;48.872;9.390;2023-04-06T08:21:33;98580.91;;;10.77;43.64
53719;BME280;39616;48.872;9.390;2023-04-06T08:24:03;98575.16;;;10.83;40.81
53719;BME280;39616;48.872;9.390;2023-04-06T08:26:34;98574.34;;;11.02;41.05
53719;BME280;39616;48.872;9.390;2023-04-06T08:29:04;98582.19;;;10.84;40.10
53719;BME280;39616;48.872;9.390;2023-04-06T08:31:37;98577.69;;;10.75;40.70
53719;BME280;39616;48.872;9.390;2023-04-06T08:34:07;98582.13;;;11.08;39.70
53719;BME280;39616;48.872;9.390;2023-04-06T08:36:38;98576.16;;;11.25;39.31
53719;BME280;39616;48.872;9.390;2023-04-06T08:39:08;98582.59;;;11.48;39.37
53719;BME280;39616;48.872;9.390;2023-04-06T08:41:41;98581.91;;;11.75;38.90
53719;BME280;39616;48.872;9.390;2023-04-06T08:44:12;98576.63;;;11.65;38.62
53719;BME280;39616;48.872;9.390;2023-04-06T08:46:43;98580.28;;;12.07;38.51
53719;BME280;39616;48.872;9.390;2023-04-06T08:49:14;98579.44;;;11.60;38.43
53719;BME280;39616;48.872;9.390;2023-04-06T08:51:44;98583.47;;;11.63;39.15
53719;BME280;39616;48.872;9.390;2023-04-06T08:54:14;98580.94;;;11.85;37.87
53719;BME280;39616;48.872;9.390;2023-04-06T08:56:45;98576.69;;;12.53;37.39
53719;BME280;39616;48.872;9.390;2023-04-06T08:59:17;98571.25;;;13.17;36.97
53719;BME280;39616;48.872;9.390;2023-04-06T09:01:48;98569.31;;;13.17;36.31
53719;BME280;39616;48.872;9.390;2023-04-06T09:04:18;98569.94;;;12.64;36.34
53719;BME280;39616;48.872;9.390;2023-04-06T09:06:49;98568.09;;;12.18;37.39
53719;BME280;39616;48.872;9.390;2023-04-06T09:09:20;98567.56;;;11.89;38.33
53719;BME280;39616;48.872;9.390;2023-04-06T09:11:51;98565.59;;;12.36;37.52
53719;BME280;39616;48.872;9.390;2023-04-06T09:14:38;98558.06;;;12.60;37.64
53719;BME280;39616;48.872;9.390;2023-04-06T09:17:20;98561.09;;;12.45;37.26
53719;BME280;39616;48.872;9.390;2023-04-06T09:19:51;98555.09;;;13.20;36.59
53719;BME280;39616;48.872;9.390;2023-04-06T09:22:22;98549.06;;;13.46;35.66
53719;BME280;39616;48.872;9.390;2023-04-06T09:24:53;98561.66;;;13.19;35.92
53719;BME280;39616;48.872;9.390;2023-04-06T09:27:31;98553.19;;;13.66;35.19
53719;BME280;39616;48.872;9.390;2023-04-06T09:30:03;98541.66;;;14.22;34.52
53719;BME280;39616;48.872;9.390;2023-04-06T09:32:52;98541.06;;;14.43;34.10
53719;BME280;39616;48.872;9.390;2023-04-06T09:35:23;98536.72;;;14.99;33.34
53719;BME280;39616;48.872;9.390;2023-04-06T09:37:53;98540.44;;;14.06;33.59
53719;BME280;39616;48.872;9.390;2023-04-06T09:40:25;98553.03;;;13.85;33.25
53719;BME280;39616;48.872;9.390;2023-04-06T09:42:55;98541.56;;;14.45;34.18
53719;BME280;39616;48.872;9.390;2023-04-06T09:45:29;98541.81;;;14.66;32.77
53719;BME280;39616;48.872;9.390;2023-04-06T09:48:01;98549.69;;;13.06;34.15
53719;BME280;39616;48.872;9.390;2023-04-06T09:50:31;98533.34;;;13.96;33.68
53719;BME280;39616;48.872;9.390;2023-04-06T09:53:04;98538.47;;;14.78;34.15
53719;BME280;39616;48.872;9.390;2023-04-06T09:55:40;98531.81;;;14.53;34.61
53719;BME280;39616;48.872;9.390;2023-04-06T09:58:19;98535.28;;;14.93;33.21
53719;BME280;39616;48.872;9.390;2023-04-06T10:01:04;98529.47;;;14.94;32.60
53719;BME280;39616;48.872;9.390;2023-04-06T10:06:21;98530.78;;;13.69;34.08
53719;BME280;39616;48.872;9.390;2023-04-06T10:08:55;98535.88;;;12.67;34.97
53719;BME280;39616;48.872;9.390;2023-04-06T10:11:26;98542.59;;;13.19;34.13
53719;BME280;39616;48.872;9.390;2023-04-06T10:13:57;98528.69;;;13.97;33.29
53719;BME280;39616;48.872;9.390;2023-04-06T10:16:27;98529.50;;;13.97;33.16
53719;BME280;39616;48.872;9.390;2023-04-06T10:19:06;98527.56;;;13.98;33.50
53719;BME280;39616;48.872;9.390;2023-04-06T10:21:38;98538.72;;;12.98;34.14
53719;BME280;39616;48.872;9.390;2023-04-06T10:24:10;98536.06;;;13.06;34.66
53719;BME280;39616;48.872;9.390;2023-04-06T10:26:41;98527.03;;;13.56;33.38
53719;BME280;39616;48.872;9.390;2023-04-06T10:29:11;98524.66;;;13.94;35.82
53719;BME280;39616;48.872;9.390;2023-04-06T10:31:42;98520.66;;;13.61;34.59
53719;BME280;39616;48.872;9.390;2023-04-06T10:34:13;98537.84;;;13.25;34.21
53719;BME280;39616;48.872;9.390;2023-04-06T10:36:47;98543.44;;;13.06;34.71
53719;BME280;39616;48.872;9.390;2023-04-06T10:39:24;98525.84;;;13.71;33.04
53719;BME280;39616;48.872;9.390;2023-04-06T10:42:06;98528.56;;;14.42;34.57
53719;BME280;39616;48.872;9.390;2023-04-06T10:44:42;98522.41;;;14.27;32.58
53719;BME280;39616;48.872;9.390;2023-04-06T10:47:17;98527.91;;;13.43;34.02
53719;BME280;39616;48.872;9.390;2023-04-06T10:49:50;98526.50;;;13.09;34.11
53719;BME280;39616;48.872;9.390;2023-04-06T10:52:21;98523.28;;;13.74;32.66
53719;BME280;39616;48.872;9.390;2023-04-06T10:54:52;98511.16;;;14.78;31.18
53719;BME280;39616;48.872;9.390;2023-04-06T10:57:29;98507.81;;;15.07;30.19
53719;BME280;39616;48.872;9.390;2023-04-06T11:00:06;98508.72;;;15.80;28.65
53719;BME280;39616;48.872;9.390;2023-04-06T11:02:37;98502.81;;;15.35;32.26
53719;BME280;39616;48.872;9.390;2023-04-06T11:05:11;98502.53;;;16.30;29.06
53719;BME280;39616;48.872;9.390;2023-04-06T11:07:42;98499.78;;;15.02;28.91
53719;BME280;39616;48.872;9.390;2023-04-06T11:10:21;98507.72;;;15.85;29.30
53719;BME280;39616;48.872;9.390;2023-04-06T11:12:55;98501.38;;;15.37;29.59
53719;BME280;39616;48.872;9.390;2023-04-06T11:15:26;98499.44;;;15.46;31.53
53719;BME280;39616;48.872;9.390;2023-04-06T11:17:56;98496.50;;;15.78;30.54
53719;BME280;39616;48.872;9.390;2023-04-06T11:20:27;98498.00;;;15.14;29.21
53719;BME280;39616;48.872;9.390;2023-04-06T11:22:57;98494.97;;;15.25;30.01
53719;BME280;39616;48.872;9.390;2023-04-06T11:25:29;98496.84;;;15.59;30.33
53719;BME280;39616;48.872;9.390;2023-04-06T11:28:01;98495.09;;;15.54;30.17
53719;BME280;39616;48.872;9.390;2023-04-06T11:30:31;98490.63;;;14.80;28.89
53719;BME280;39616;48.872;9.390;2023-04-06T11:33:02;98492.84;;;14.21;29.87
53719;BME280;39616;48.872;9.390;2023-04-06T11:35:33;98493.25;;;13.35;30.34
53719;BME280;39616;48.872;9.390;2023-04-06T11:38:04;98493.56;;;12.97;30.98
53719;BME280;39616;48.872;9.390;2023-04-06T11:40:34;98483.09;;;13.26;31.20
53719;BME280;39616;48.872;9.390;2023-04-06T11:43:05;98479.78;;;13.16;32.13
53719;BME280;39616;48.872;9.390;2023-04-06T11:45:43;98474.19;;;13.35;31.28
53719;BME280;39616;48.872;9.390;2023-04-06T11:48:19;98468.63;;;13.71;31.51
53719;BME280;39616;48.872;9.390;2023-04-06T11:50:55;98469.59;;;13.75;31.85
53719;BME280;39616;48.872;9.390;2023-04-06T11:53:27;98468.28;;;14.04;31.82
53719;BME280;39616;48.872;9.390;2023-04-06T11:55:58;98462.84;;;13.72;30.92
53719;BME280;39616;48.872;9.390;2023-04-06T11:58:29;98456.81;;;13.53;30.95
53719;BME280;39616;48.872;9.390;2023-04-06T12:01:04;98456.72;;;13.67;31.71
53719;BME280;39616;48.872;9.390;2023-04-06T12:03:34;98455.63;;;13.76;31.56
53719;BME280;39616;48.872;9.390;2023-04-06T12:06:05;98461.97;;;13.32;31.01
53719;BME280;39616;48.872;9.390;2023-04-06T12:08:35;98450.28;;;13.32;32.26
53719;BME280;39616;48.872;9.390;2023-04-06T12:11:06;98464.84;;;12.91;32.16
53719;BME280;39616;48.872;9.390;2023-04-06T12:13:36;98456.25;;;12.25;32.53
53719;BME280;39616;48.872;9.390;2023-04-06T12:16:07;98456.22;;;12.89;32.16
53719;BME280;39616;48.872;9.390;2023-04-06T12:18:37;98458.16;;;12.24;32.69
53719;BME280;39616;48.872;9.390;2023-04-06T12:21:08;98458.03;;;12.43;32.75
53719;BME280;39616;48.872;9.390;2023-04-06T12:23:38;98450.91;;;12.33;32.18
53719;BME280;39616;48.872;9.390;2023-04-06T12:26:08;98452.25;;;12.95;33.22
53719;BME280;39616;48.872;9.390;2023-04-06T12:28:39;98443.31;;;12.80;31.58
53719;BME280;39616;48.872;9.390;2023-04-06T12:31:18;98442.06;;;12.64;32.28
53719;BME280;39616;48.872;9.390;2023-04-06T12:33:49;98436.94;;;12.26;32.63
53719;BME280;39616;48.872;9.390;2023-04-06T12:36:20;98443.91;;;12.55;33.05
53719;BME280;39616;48.872;9.390;2023-04-06T12:38:51;98436.88;;;12.76;32.74
53719;BME280;39616;48.872;9.390;2023-04-06T12:41:21;98437.31;;;12.70;31.65
53719;BME280;39616;48.872;9.390;2023-04-06T12:43:51;98445.16;;;12.21;31.68
53719;BME280;39616;48.872;9.390;2023-04-06T12:46:23;98442.13;;;12.37;32.19
53719;BME280;39616;48.872;9.390;2023-04-06T12:48:53;98434.44;;;12.52;31.33
53719;BME280;39616;48.872;9.390;2023-04-06T12:51:27;98436.94;;;12.26;32.16
53719;BME280;39616;48.872;9.390;2023-04-06T12:53:58;98443.81;;;12.46;32.03
53719;BME280;39616;48.872;9.390;2023-04-06T12:56:28;98431.81;;;12.84;31.10
53719;BME280;39616;48.872;9.390;2023-04-06T12:58:58;98428.13;;;12.79;30.58
53719;BME280;39616;48.872;9.390;2023-04-06T13:01:29;98429.69;;;12.58;31.36
53719;BME280;39616;48.872;9.390;2023-04-06T13:03:59;98422.59;;;13.16;31.28
53719;BME280;39616;48.872;9.390;2023-04-06T13:06:30;98425.28;;;13.29;30.65
53719;BME280;39616;48.872;9.390;2023-04-06T13:09:00;98418.91;;;13.34;30.81
53719;BME280;39616;48.872;9.390;2023-04-06T13:11:31;98423.03;;;13.09;30.27
53719;BME280;39616;48.872;9.390;2023-04-06T13:14:01;98427.50;;;13.05;31.02
53719;BME280;39616;48.872;9.390;2023-04-06T13:16:31;98414.59;;;13.33;31.01
53719;BME280;39616;48.872;9.390;2023-04-06T13:19:02;98409.19;;;13.50;31.04
53719;BME280;39616;48.872;9.390;2023-04-06T13:21:32;98403.66;;;13.64;30.84
53719;BME280;39616;48.872;9.390;2023-04-06T13:24:03;98406.03;;;13.03;31.35
53719;BME280;39616;48.872;9.390;2023-04-06T13:26:35;98404.84;;;13.18;30.96
53719;BME280;39616;48.872;9.390;2023-04-06T13:29:06;98399.47;;;13.58;30.82